Time;durP1;ratioP1;P1;durP2;ratioP2;P2;SDS_P1;SDS_P2;PMS_P1;PMS_P2;Temp;Humidity;BMP_temperature;BMP_pressure;BME280_temperature;BME280_humidity;BME280_pressure;Samples;Min_cycle;Max_cycle;Signal;HPM_P1;HPM_P2
2023/07/20 00:00:20;;;;;;;8.33;5.20;;;18.10;99.90;;;18.38;88.95;97633.34;5103438;27;20450;-77
2023/07/20 00:02:51;;;;;;;5.33;4.83;;;18.10;99.90;;;18.21;88.55;97624.63;5102650;27;20988;-76
2023/07/20 00:05:21;;;;;;;7.30;5.13;;;18.10;99.90;;;18.17;89.29;97632.56;5102164;27;20572;-76
2023/07/20 00:07:51;;;;;;;4.77;4.37;;;18.00;99.90;;;18.29;88.67;97637.75;5120387;27;20858;-77
2023/07/20 00:10:19;;;;;;;5.03;4.63;;;18.00;99.90;;;18.26;87.60;97622.72;5124046;27;20434;-75
2023/07/20 00:12:47;;;;;;;5.73;4.83;;;18.10;99.90;;;18.20;88.21;97628.47;5116345;27;20945;-75
2023/07/20 00:15:14;;;;;;;5.47;4.97;;;18.10;99.90;;;17.95;88.14;97576.25;5122526;27;20462;-75
2023/07/20 00:17:41;;;;;;;4.90;4.40;;;18.10;99.90;;;17.95;88.21;97589.91;5113990;27;20470;-76
2023/07/20 00:20:11;;;;;;;4.60;4.20;;;18.10;99.90;;;18.30;88.03;97633.94;5131595;27;20472;-76
2023/07/20 00:22:39;;;;;;;5.00;4.33;;;18.10;99.90;;;18.15;88.53;97628.47;5101206;27;20461;-77
2023/07/20 00:25:07;;;;;;;5.30;4.70;;;18.00;99.90;;;18.16;88.17;97630.94;5098705;27;20446;-77
2023/07/20 00:27:34;;;;;;;5.30;4.80;;;18.00;99.90;;;18.18;88.17;97625.19;5116093;27;20446;-77
2023/07/20 00:30:02;;;;;;;5.37;4.87;;;18.00;99.90;;;18.25;87.76;97628.44;5118953;27;20540;-77
2023/07/20 00:32:29;;;;;;;5.67;5.17;;;18.00;99.90;;;18.24;87.55;97624.91;5094880;27;20466;-78
2023/07/20 00:34:57;;;;;;;5.47;4.60;;;18.10;99.90;;;17.90;88.00;97580.91;5116742;27;20582;-75
2023/07/20 00:37:24;;;;;;;5.73;4.93;;;18.00;99.90;;;18.12;88.28;97619.75;5097870;27;20493;-77
2023/07/20 00:39:54;;;;;;;5.40;4.90;;;18.00;99.90;;;18.18;88.69;97611.53;5098609;27;21168;-78
2023/07/20 00:42:21;;;;;;;5.70;5.17;;;18.00;99.90;;;17.99;89.58;97595.66;5103764;27;20447;-76
2023/07/20 00:44:48;;;;;;;8.00;5.63;;;17.90;99.90;;;18.03;89.15;97595.94;5124982;27;20465;-77
2023/07/20 00:47:16;;;;;;;5.27;4.40;;;17.90;99.90;;;17.78;89.89;97606.56;5127087;27;20451;-78
2023/07/20 00:49:44;;;;;;;6.10;5.50;;;17.70;99.90;;;17.61;91.20;97608.75;5107349;28;20539;-78
2023/07/20 00:52:14;;;;;;;5.70;5.20;;;17.60;99.90;;;17.63;91.77;97614.75;5127580;27;20459;-77
2023/07/20 00:54:42;;;;;;;8.23;5.23;;;17.60;99.90;;;17.68;91.39;97617.53;5130848;27;20450;-77
2023/07/20 00:57:11;;;;;;;6.03;5.43;;;17.50;99.90;;;17.78;90.72;97617.50;5130199;27;20456;-76
2023/07/20 00:59:38;;;;;;;5.90;5.13;;;17.50;99.90;;;17.56;91.92;97612.28;5132371;27;20895;-77
2023/07/20 01:02:05;;;;;;;5.43;4.93;;;17.40;99.90;;;17.64;92.52;97610.94;5131580;27;20457;-78
2023/07/20 01:04:33;;;;;;;5.83;5.27;;;17.30;99.90;;;17.52;92.48;97609.31;5120657;27;20458;-79
2023/07/20 01:07:12;;;;;;;7.57;5.20;;;17.30;99.90;;;17.48;93.02;97616.38;5123594;27;20438;-79
2023/07/20 01:09:47;;;;;;;5.47;4.87;;;17.20;99.90;;;17.50;93.74;97630.56;5126834;27;20502;-77
2023/07/20 01:12:24;;;;;;;6.07;5.30;;;17.20;99.90;;;17.58;94.22;97617.50;5127262;27;20457;-76
2023/07/20 01:14:52;;;;;;;6.37;5.77;;;17.20;99.90;;;17.48;93.09;97613.66;5127023;27;20465;-76
2023/07/20 01:17:19;;;;;;;5.60;5.10;;;17.40;99.90;;;17.66;91.97;97608.75;5100690;27;20453;-73
2023/07/20 01:19:46;;;;;;;6.13;5.63;;;17.40;99.90;;;17.34;91.30;97538.81;5101898;28;20531;-76
2023/07/20 01:22:49;;;;;;;5.30;4.80;;;17.60;99.90;;;17.79;90.13;97613.69;5119364;27;20450;-73
2023/07/20 01:25:51;;;;;;;8.53;5.40;;;17.50;99.90;;;17.82;89.87;97612.31;5119144;27;20487;-78
2023/07/20 01:28:39;;;;;;;6.03;5.53;;;17.60;99.90;;;17.79;90.22;97623.81;5135786;27;20476;-75
2023/07/20 01:31:25;;;;;;;5.43;4.93;;;17.50;99.90;;;17.35;90.87;97565.03;5095753;27;20460;-74
2023/07/20 01:33:55;;;;;;;7.33;5.40;;;17.50;99.90;;;17.38;91.09;97581.69;5104358;27;20442;-74
2023/07/20 01:36:25;;;;;;;6.03;5.43;;;17.50;99.90;;;17.64;92.30;97608.22;5125411;27;20464;-78
2023/07/20 01:38:53;;;;;;;6.10;5.60;;;17.50;99.90;;;17.64;92.78;97603.56;5128555;27;21034;-75
2023/07/20 01:41:21;;;;;;;6.80;6.00;;;17.40;99.90;;;17.64;92.39;97600.00;5121747;27;20465;-75
2023/07/20 01:43:49;;;;;;;6.37;5.07;;;17.40;99.90;;;17.53;93.16;97600.03;5106714;27;20831;-74
2023/07/20 01:46:16;;;;;;;5.67;5.17;;;17.40;99.90;;;17.45;93.06;97606.00;5127717;27;21020;-75
2023/07/20 01:48:45;;;;;;;6.90;6.20;;;17.30;99.90;;;17.23;94.00;97612.53;5128688;27;20459;-74
2023/07/20 01:51:12;;;;;;;6.50;5.90;;;17.10;99.90;;;17.18;94.90;97617.94;5126097;27;20481;-78
2023/07/20 01:53:39;;;;;;;5.73;5.20;;;16.90;99.90;;;17.15;94.87;97621.22;5144710;27;20453;-75
2023/07/20 01:56:06;;;;;;;6.37;5.53;;;16.90;99.90;;;17.15;95.32;97637.59;5125767;27;20438;-74
2023/07/20 01:58:33;;;;;;;7.10;6.30;;;16.90;99.90;;;17.26;95.27;97632.97;5123403;27;20557;-74
2023/07/20 02:01:01;;;;;;;8.10;7.30;;;17.00;99.90;;;17.29;94.89;97648.84;5120192;27;20482;-78
2023/07/20 02:03:28;;;;;;;7.47;6.03;;;17.00;99.90;;;17.43;94.55;97646.41;5106905;27;20465;-76
2023/07/20 02:05:57;;;;;;;9.13;6.97;;;17.10;99.90;;;17.62;92.93;97651.38;5123300;27;20493;-75
2023/07/20 02:08:24;;;;;;;7.50;6.00;;;17.30;99.90;;;17.59;93.13;97657.38;5129998;27;20460;-75
2023/07/20 02:10:52;;;;;;;7.47;6.77;;;17.30;99.90;;;17.48;93.48;97653.81;5126739;27;20466;-75
2023/07/20 02:13:20;;;;;;;8.23;7.20;;;17.30;99.90;;;17.36;94.14;97651.28;5124718;27;21296;-75
2023/07/20 02:15:49;;;;;;;7.67;6.80;;;17.30;99.90;;;17.23;94.48;97633.53;5121561;27;20468;-74
2023/07/20 02:18:16;;;;;;;7.30;6.70;;;17.30;99.90;;;17.41;94.81;97651.31;5118565;27;20497;-75
2023/07/20 02:20:44;;;;;;;7.40;6.70;;;17.30;99.90;;;17.48;93.93;97649.16;5103966;27;20461;-76
2023/07/20 02:23:13;;;;;;;7.30;6.60;;;17.30;99.90;;;17.48;94.08;97651.88;5101017;27;20831;-77
2023/07/20 02:25:40;;;;;;;6.57;5.97;;;17.30;99.90;;;17.51;94.29;97648.59;5119305;27;20565;-77
2023/07/20 02:28:09;;;;;;;7.67;6.93;;;17.30;99.90;;;17.47;94.73;97655.69;5117600;27;20895;-76
2023/07/20 02:30:39;;;;;;;6.97;6.30;;;17.20;99.90;;;17.27;95.31;97646.38;5100653;27;20450;-77
2023/07/20 02:33:07;;;;;;;12.53;7.23;;;17.30;99.90;;;17.41;95.16;97663.06;5101370;27;20532;-75
2023/07/20 02:35:34;;;;;;;7.23;6.03;;;17.40;99.90;;;17.38;95.25;97668.25;5117235;27;20461;-77
2023/07/20 02:38:01;;;;;;;8.33;7.20;;;17.40;99.90;;;17.24;95.53;97652.38;5118174;27;20469;-77
2023/07/20 02:40:30;;;;;;;8.37;7.57;;;17.40;99.90;;;17.26;95.58;97673.94;5126364;27;20520;-77
2023/07/20 02:42:57;;;;;;;7.60;6.93;;;17.40;99.90;;;17.18;96.76;97655.34;5136739;27;20549;-77
2023/07/20 02:45:24;;;;;;;7.97;7.13;;;17.30;99.90;;;17.24;95.88;97652.38;5111573;27;20560;-75
2023/07/20 02:47:51;;;;;;;8.50;6.73;;;17.30;99.90;;;17.17;95.90;97662.72;5107884;27;20446;-77
2023/07/20 02:50:19;;;;;;;8.37;7.57;;;17.30;99.90;;;17.43;94.68;97654.59;5121222;27;20449;-76
2023/07/20 02:52:46;;;;;;;7.27;6.67;;;17.40;99.90;;;17.33;94.67;97665.50;5118042;27;20454;-77
2023/07/20 02:55:13;;;;;;;7.00;6.30;;;17.40;99.90;;;17.38;94.92;97668.25;5101724;27;20507;-73
2023/07/20 02:57:42;;;;;;;7.20;6.50;;;17.40;99.90;;;17.36;94.41;97670.41;5117433;27;21130;-75
2023/07/20 03:00:11;;;;;;;9.10;7.17;;;17.40;99.90;;;17.45;93.63;97685.19;5118104;27;20469;-77
2023/07/20 03:02:38;;;;;;;9.03;7.00;;;17.40;99.90;;;17.37;93.59;97672.06;5133150;27;20507;-77
2023/07/20 03:05:07;;;;;;;7.73;6.83;;;17.40;99.90;;;17.08;94.29;97631.56;5123481;27;20453;-78
2023/07/20 03:07:34;;;;;;;7.90;7.00;;;17.40;99.90;;;17.23;94.39;97671.75;5136376;27;20473;-79
2023/07/20 03:10:02;;;;;;;7.57;6.87;;;17.30;99.90;;;16.99;94.54;97656.63;5130659;27;20442;-81
2023/07/20 03:12:30;;;;;;;7.80;7.10;;;17.30;99.90;;;16.97;95.51;97666.97;5131887;27;20564;-80
2023/07/20 03:14:58;;;;;;;8.67;7.30;;;17.20;99.90;;;16.99;96.16;97681.19;5123958;27;20514;-81
2023/07/20 03:17:25;;;;;;;7.33;6.73;;;17.10;99.90;;;16.86;96.01;97692.56;5121228;27;20460;-81
2023/07/20 03:19:52;;;;;;;8.00;7.20;;;17.00;99.90;;;16.77;96.42;97686.78;5119284;27;20480;-79
2023/07/20 03:22:21;;;;;;;8.10;7.03;;;16.90;99.90;;;16.88;96.45;97679.47;5119527;27;20446;-81
2023/07/20 03:24:48;;;;;;;8.17;7.43;;;16.90;99.90;;;16.83;96.76;97682.19;5123038;27;20955;-76
2023/07/20 03:27:15;;;;;;;8.23;7.47;;;16.90;99.90;;;16.71;98.32;97687.84;5118423;27;20469;-73
2023/07/20 03:29:44;;;;;;;8.00;6.30;;;16.80;99.90;;;16.83;96.76;97690.34;5121805;27;20552;-75
2023/07/20 03:32:12;;;;;;;8.47;7.67;;;16.90;99.90;;;16.67;97.34;97706.63;5119046;27;20468;-76
2023/07/20 03:34:39;;;;;;;8.37;6.97;;;16.80;99.90;;;16.72;96.51;97694.94;5102996;27;20976;-76
2023/07/20 03:37:07;;;;;;;7.30;6.70;;;16.80;99.90;;;16.71;96.47;97705.00;5119254;27;20774;-77
2023/07/20 03:39:34;;;;;;;8.47;7.10;;;16.80;99.90;;;16.75;95.90;97705.31;5118790;27;20484;-77
2023/07/20 03:42:01;;;;;;;9.20;6.93;;;16.80;99.90;;;16.86;94.89;97711.66;5096468;27;21175;-77
2023/07/20 03:44:29;;;;;;;7.87;7.10;;;16.90;99.90;;;16.84;94.86;97708.38;5120873;27;21004;-76
2023/07/20 03:46:56;;;;;;;8.60;6.37;;;16.90;99.90;;;16.83;94.66;97715.75;5117482;27;20450;-76
2023/07/20 03:49:25;;;;;;;6.43;5.83;;;16.90;99.90;;;16.89;95.17;97707.59;5099652;27;20463;-76
2023/07/20 03:51:53;;;;;;;7.00;6.30;;;16.90;99.90;;;17.20;92.85;97715.94;5117857;27;20457;-76
2023/07/20 03:54:20;;;;;;;8.20;5.30;;;17.10;99.90;;;17.07;92.64;97706.34;5119518;27;20457;-77
2023/07/20 03:56:47;;;;;;;8.67;6.30;;;17.10;99.90;;;16.99;92.27;97707.69;5116122;27;20454;-78
2023/07/20 03:59:14;;;;;;;5.93;5.43;;;17.10;99.90;;;17.11;91.67;97707.47;5104687;27;20546;-74
2023/07/20 04:01:41;;;;;;;6.30;5.70;;;17.20;99.90;;;17.08;91.31;97708.00;5124331;27;20459;-78
2023/07/20 04:04:09;;;;;;;6.67;5.87;;;17.20;99.90;;;17.12;90.86;97706.38;5109416;27;20847;-76
2023/07/20 04:06:38;;;;;;;6.60;5.90;;;17.20;99.90;;;17.32;90.18;97718.44;5137556;27;20456;-77
2023/07/20 04:09:05;;;;;;;6.20;5.60;;;17.30;99.90;;;17.37;89.37;97710.31;5111591;27;20498;-78
2023/07/20 04:11:33;;;;;;;6.97;6.03;;;17.30;99.90;;;17.30;89.40;97720.63;5125936;27;20445;-78
2023/07/20 04:14:00;;;;;;;6.30;5.70;;;17.30;99.90;;;17.08;89.54;97716.97;5103000;27;20453;-74
2023/07/20 04:16:27;;;;;;;6.27;5.63;;;17.30;99.90;;;17.14;89.22;97717.84;5117129;27;20468;-78
2023/07/20 04:18:56;;;;;;;6.33;5.83;;;17.30;99.90;;;17.29;88.53;97730.75;5117203;27;20469;-77
2023/07/20 04:21:24;;;;;;;6.27;5.30;;;17.30;99.50;;;17.22;88.10;97736.44;5124466;27;20897;-74
2023/07/20 04:23:53;;;;;;;7.47;5.40;;;17.30;98.60;;;17.27;87.99;97735.63;5118647;27;20635;-79
2023/07/20 04:26:20;;;;;;;6.73;6.10;;;17.30;98.80;;;17.19;87.05;97728.75;5115953;27;20457;-78
2023/07/20 04:28:48;;;;;;;6.93;6.17;;;17.30;98.00;;;17.22;87.24;97736.44;5114931;27;20468;-77
2023/07/20 04:31:16;;;;;;;6.13;5.60;;;17.40;98.10;;;17.20;87.73;97744.06;5117809;27;20545;-75
2023/07/20 04:33:44;;;;;;;9.30;5.60;;;17.40;98.00;;;17.40;86.95;97745.25;5119876;27;20498;-76
2023/07/20 04:36:11;;;;;;;6.03;5.53;;;17.40;98.30;;;17.34;86.82;97744.41;5118264;27;20502;-76
2023/07/20 04:38:39;;;;;;;6.27;5.67;;;17.40;98.10;;;17.41;86.07;97744.16;5118268;27;20452;-87
2023/07/20 04:41:13;;;;;;;6.30;5.70;;;17.50;97.30;;;17.09;86.39;97709.63;5109508;28;20472;-84
2023/07/20 04:43:43;;;;;;;6.30;5.70;;;17.40;97.20;;;16.96;86.04;97668.06;5108451;27;20484;-85
2023/07/20 04:46:13;;;;;;;8.60;5.93;;;17.50;97.10;;;17.74;84.26;97744.81;5151394;27;20457;-88
2023/07/20 04:48:41;;;;;;;5.70;5.17;;;17.70;96.10;;;18.26;80.02;97704.75;5146013;27;20508;-87
2023/07/20 04:51:11;;;;;;;6.00;5.13;;;18.40;93.80;;;18.49;77.63;97751.75;5127902;27;20449;-86
2023/07/20 04:53:43;;;;;;;5.13;4.63;;;18.60;92.00;;;18.48;78.04;97752.06;5122890;28;20454;-87
2023/07/20 04:56:18;;;;;;;5.60;5.00;;;18.60;91.70;;;17.12;78.01;97545.34;5137882;27;20478;-86
2023/07/20 04:59:11;;;;;;;5.90;5.30;;;18.70;91.60;;;18.12;79.32;97745.50;5127228;27;20460;-89
2023/07/20 05:01:43;;;;;;;5.87;5.27;;;18.40;92.00;;;17.32;79.73;97650.19;5138624;27;20509;-87
2023/07/20 05:04:13;;;;;;;6.30;4.80;;;18.20;92.60;;;17.72;80.20;97716.13;5132654;27;20949;-84
2023/07/20 05:06:40;;;;;;;8.27;4.43;;;18.10;92.80;;;18.16;78.29;97748.47;5156551;27;20437;-84
2023/07/20 05:09:10;;;;;;;7.23;5.10;;;18.30;92.00;;;18.89;74.72;97749.28;5150608;27;20479;-84
2023/07/20 05:11:38;;;;;;;4.53;4.00;;;18.90;91.00;;;19.59;71.46;97744.16;5115147;27;20458;-87
2023/07/20 05:14:07;;;;;;;4.70;4.07;;;19.50;89.70;;;19.97;69.32;97739.06;5114394;27;20442;-85
2023/07/20 05:16:35;;;;;;;4.80;4.40;;;20.10;87.20;;;19.93;68.10;97737.97;5114181;27;20542;-85
2023/07/20 05:19:02;;;;;;;5.23;3.53;;;20.40;85.80;;;20.14;67.07;97755.09;5125526;27;20475;-75
2023/07/20 05:21:29;;;;;;;5.00;4.60;;;20.30;85.30;;;19.81;68.26;97757.47;5124834;27;20453;-85
2023/07/20 05:23:57;;;;;;;5.40;4.87;;;20.20;85.30;;;19.51;69.81;97760.09;5129160;27;20929;-73
2023/07/20 05:26:24;;;;;;;6.77;4.67;;;19.90;86.20;;;19.26;71.30;97758.25;5134079;27;20998;-73
2023/07/20 05:28:52;;;;;;;4.80;4.30;;;19.50;87.10;;;18.74;72.20;97763.78;5122729;27;20450;-71
2023/07/20 05:31:19;;;;;;;5.07;4.57;;;19.10;87.00;;;18.64;73.50;97759.16;5120097;27;20498;-84
2023/07/20 05:33:47;;;;;;;5.80;5.20;;;18.80;88.10;;;18.61;73.25;97754.25;5125172;27;20535;-73
2023/07/20 05:36:14;;;;;;;5.37;4.83;;;18.70;88.80;;;18.91;72.15;97757.22;5109235;27;20465;-72
2023/07/20 05:38:42;;;;;;;4.97;4.40;;;18.80;88.70;;;19.69;69.31;97766.03;5119664;27;20452;-73
2023/07/20 05:41:10;;;;;;;15.73;5.33;;;19.50;87.60;;;19.29;71.16;97767.81;5128045;27;20474;-72
2023/07/20 05:43:38;;;;;;;5.83;4.80;;;19.50;87.40;;;19.19;71.74;97768.69;5125187;27;20859;-76
2023/07/20 05:46:07;;;;;;;6.93;4.30;;;19.30;87.80;;;19.75;69.87;97764.09;5105027;27;20446;-79
2023/07/20 05:48:35;;;;;;;4.37;4.00;;;19.70;87.50;;;20.05;68.37;97776.81;5104979;27;20442;-72
2023/07/20 05:51:02;;;;;;;4.93;4.53;;;20.30;85.80;;;19.60;69.36;97764.97;5114765;27;20473;-72
2023/07/20 05:53:29;;;;;;;5.10;4.60;;;20.20;85.40;;;19.28;71.34;97766.19;5109835;27;20461;-73
2023/07/20 05:55:56;;;;;;;6.50;4.43;;;19.70;86.60;;;19.41;70.98;97765.59;5126481;27;20862;-75
2023/07/20 05:58:24;;;;;;;6.13;5.20;;;19.50;87.20;;;20.38;67.67;97766.16;5125191;27;20961;-72
2023/07/20 06:00:52;;;;;;;5.90;4.77;;;20.30;86.30;;;21.95;60.88;97766.22;5119330;27;20504;-72
2023/07/20 06:03:21;;;;;;;5.20;4.70;;;21.80;82.90;;;21.81;60.92;97766.13;5117267;27;20495;-73
2023/07/20 06:05:48;;;;;;;4.17;3.77;;;22.40;80.90;;;21.33;61.91;97778.78;5104936;27;20448;-73
2023/07/20 06:08:15;;;;;;;5.73;4.10;;;21.70;80.90;;;21.67;61.32;97778.97;5104555;27;20442;-74
2023/07/20 06:10:42;;;;;;;3.97;3.50;;;21.90;81.10;;;21.96;60.11;97770.63;5120817;27;20448;-74
2023/07/20 06:13:10;;;;;;;3.73;3.43;;;22.20;80.20;;;21.87;59.47;97759.47;5098271;27;21022;-73
2023/07/20 06:15:39;;;;;;;4.47;3.37;;;22.40;79.10;;;21.85;59.72;97778.19;5111318;27;20450;-73
2023/07/20 06:18:06;;;;;;;4.50;4.13;;;22.40;78.90;;;21.73;58.82;97778.59;5118878;27;20477;-73
2023/07/20 06:20:35;;;;;;;4.60;4.20;;;22.50;77.60;;;20.83;61.44;97775.44;5115943;27;20518;-73
2023/07/20 06:23:02;;;;;;;4.73;3.90;;;21.40;78.70;;;20.99;61.21;97778.84;5121304;27;20461;-73
2023/07/20 06:25:30;;;;;;;5.50;3.53;;;21.30;79.30;;;20.92;61.43;97774.53;5120116;27;20485;-73
2023/07/20 06:27:59;;;;;;;5.77;4.17;;;21.30;78.80;;;20.37;62.78;97780.19;5122976;27;20545;-73
2023/07/20 06:30:26;;;;;;;4.20;3.80;;;20.90;79.40;;;19.87;64.49;97761.84;5118643;27;20452;-74
2023/07/20 06:32:53;;;;;;;4.00;3.57;;;20.40;80.40;;;19.67;64.79;97781.94;5113255;27;21340;-74
2023/07/20 06:35:20;;;;;;;4.90;3.57;;;20.00;80.80;;;19.61;65.90;97774.81;5115786;27;20499;-75
2023/07/20 06:37:49;;;;;;;5.03;4.10;;;19.80;82.10;;;19.49;66.40;97770.50;5120851;27;20477;-74
2023/07/20 06:40:16;;;;;;;4.30;3.90;;;19.70;82.40;;;19.49;66.30;97772.41;5120649;27;20470;-75
2023/07/20 06:42:44;;;;;;;5.37;4.23;;;19.70;82.50;;;19.50;65.76;97772.16;5121949;27;20458;-73
2023/07/20 06:45:11;;;;;;;4.43;3.60;;;19.60;82.20;;;19.65;64.97;97764.97;5100639;27;20485;-74
2023/07/20 06:47:40;;;;;;;5.00;4.53;;;19.70;82.20;;;19.49;64.55;97777.91;5123350;27;20483;-74
2023/07/20 06:50:08;;;;;;;4.97;4.40;;;19.70;81.40;;;19.29;65.14;97785.09;5121042;27;20467;-74
2023/07/20 06:52:35;;;;;;;8.20;4.20;;;19.60;81.50;;;19.47;64.75;97772.69;5098625;27;20486;-73
2023/07/20 06:55:04;;;;;;;7.10;5.00;;;19.50;81.70;;;19.88;63.40;97779.09;5108636;27;20456;-74
2023/07/20 06:57:32;;;;;;;8.57;4.93;;;19.90;81.50;;;19.90;62.90;97771.41;5122996;27;20951;-73
2023/07/20 06:59:59;;;;;;;5.00;4.40;;;20.10;80.60;;;19.85;62.61;97779.66;5106483;27;20501;-74
2023/07/20 07:02:26;;;;;;;4.87;4.47;;;20.00;80.10;;;19.92;62.01;97780.19;5116346;27;21042;-72
2023/07/20 07:04:54;;;;;;;4.10;3.80;;;20.10;79.90;;;20.33;60.44;97777.19;5128098;27;20499;-72
2023/07/20 07:07:22;;;;;;;5.63;3.80;;;20.40;79.30;;;20.46;59.62;97774.91;5124669;27;20458;-72
2023/07/20 07:09:49;;;;;;;5.77;3.80;;;20.60;78.30;;;21.23;56.41;97773.41;5125457;27;20450;-73
2023/07/20 07:12:17;;;;;;;6.03;4.63;;;21.00;76.80;;;20.89;56.53;97766.88;5115582;27;21031;-72
2023/07/20 07:14:45;;;;;;;3.57;3.27;;;21.00;76.10;;;20.99;55.55;97767.88;5117066;27;20473;-72
2023/07/20 07:17:12;;;;;;;5.10;3.87;;;20.90;75.40;;;20.91;55.89;97767.41;5102474;27;20546;-75
2023/07/20 07:19:40;;;;;;;3.20;2.90;;;20.90;75.20;;;20.90;55.28;97764.94;5127803;27;20786;-74
2023/07/20 07:22:08;;;;;;;3.40;3.10;;;20.90;74.60;;;20.58;55.78;97750.66;5114977;27;20878;-77
2023/07/20 07:24:35;;;;;;;3.60;3.30;;;20.70;74.10;;;20.65;56.12;97770.34;5099127;27;20451;-76
2023/07/20 07:27:02;;;;;;;6.77;3.00;;;20.70;74.60;;;20.85;55.84;97763.09;5121712;27;20479;-76
2023/07/20 07:29:30;;;;;;;4.50;2.90;;;20.80;74.50;;;21.25;54.07;97771.19;5108743;27;20452;-75
2023/07/20 07:31:58;;;;;;;5.20;2.70;;;21.10;73.70;;;21.30;53.29;97768.38;5118968;27;20480;-76
2023/07/20 07:34:26;;;;;;;3.20;2.50;;;21.30;72.60;;;21.22;53.47;97772.56;5120076;27;20460;-76
2023/07/20 07:36:53;;;;;;;2.80;2.50;;;21.20;72.30;;;21.20;53.58;97777.56;5123160;27;20462;-76
2023/07/20 07:39:21;;;;;;;3.00;2.70;;;21.10;72.00;;;21.34;52.58;97746.63;5119653;27;20563;-77
2023/07/20 07:41:48;;;;;;;2.63;2.43;;;21.30;71.70;;;20.92;53.64;97763.56;5120704;27;20477;-76
2023/07/20 07:44:15;;;;;;;2.67;2.47;;;21.10;71.60;;;20.70;54.45;97774.16;5111243;27;20478;-76
2023/07/20 07:46:44;;;;;;;8.43;3.03;;;20.80;71.90;;;21.01;53.80;97771.16;5103385;27;20974;-76
2023/07/20 07:49:11;;;;;;;4.73;2.67;;;20.90;72.00;;;20.97;53.70;97772.84;5121641;27;21116;-77
2023/07/20 07:51:38;;;;;;;3.97;2.50;;;21.00;71.40;;;20.90;52.94;97776.75;5101772;27;21052;-77
2023/07/20 07:54:06;;;;;;;2.87;2.40;;;20.90;70.50;;;20.64;53.30;97765.97;5122659;27;20933;-76
2023/07/20 07:56:33;;;;;;;3.40;2.70;;;20.70;70.70;;;20.77;53.18;97774.66;5106531;27;20482;-76
2023/07/20 07:59:00;;;;;;;3.03;2.33;;;20.70;70.50;;;21.45;52.20;97788.53;5127750;27;20459;-76
2023/07/20 08:01:28;;;;;;;3.00;1.90;;;21.20;70.70;;;21.24;51.05;97780.53;5100840;27;20477;-75
2023/07/20 08:03:57;;;;;;;2.17;1.97;;;21.20;68.80;;;21.77;50.66;97779.66;5130784;27;20521;-75
2023/07/20 08:06:24;;;;;;;2.93;1.73;;;21.50;69.70;;;21.74;48.49;97784.94;5125804;27;20574;-73
2023/07/20 08:08:51;;;;;;;2.67;2.20;;;21.70;66.60;;;21.41;49.08;97785.56;5120401;27;20462;-72
2023/07/20 08:11:18;;;;;;;2.90;2.17;;;21.50;66.30;;;21.25;50.01;97784.94;5119765;27;20467;-72
2023/07/20 08:13:46;;;;;;;6.00;2.23;;;21.30;66.80;;;21.30;49.46;97784.03;5119272;27;20525;-73
2023/07/20 08:16:13;;;;;;;4.63;2.27;;;21.30;66.50;;;21.36;49.46;97777.38;5105962;27;20457;-75
2023/07/20 08:18:40;;;;;;;2.10;1.90;;;21.30;66.20;;;21.72;49.56;97779.72;5104438;27;20930;-74
2023/07/20 08:21:09;;;;;;;2.77;2.50;;;21.50;67.00;;;21.66;48.16;97783.66;5118362;27;20554;-75
2023/07/20 08:23:36;;;;;;;3.10;2.00;;;21.60;64.80;;;21.54;49.25;97777.72;5118207;27;20469;-75
2023/07/20 08:26:04;;;;;;;4.53;2.30;;;21.50;65.50;;;21.74;49.42;97768.44;5104710;27;20457;-73
2023/07/20 08:28:32;;;;;;;2.30;2.10;;;21.70;66.00;;;22.07;48.24;97776.78;5110176;27;20505;-76
2023/07/20 08:30:59;;;;;;;2.67;1.83;;;21.90;65.30;;;21.52;48.77;97778.00;5104061;27;20636;-74
2023/07/20 08:33:29;;;;;;;2.13;1.93;;;21.60;64.90;;;21.44;49.44;97784.97;5133773;27;20893;-74
2023/07/20 08:35:57;;;;;;;2.03;1.93;;;21.50;65.20;;;21.43;48.78;97775.09;5126520;27;20459;-74
2023/07/20 08:38:26;;;;;;;4.47;1.63;;;21.50;64.70;;;21.61;47.98;97779.00;5118650;27;20591;-74
2023/07/20 08:40:54;;;;;;;1.90;1.80;;;21.60;64.20;;;21.23;47.62;97779.72;5124221;27;20472;-74
2023/07/20 08:43:23;;;;;;;3.40;1.70;;;21.40;62.90;;;21.52;46.41;97781.59;5118679;27;20513;-73
2023/07/20 08:45:53;;;;;;;1.73;1.63;;;21.40;62.20;;;21.39;46.20;97721.84;5123711;27;20456;-75
2023/07/20 08:48:21;;;;;;;2.83;1.93;;;21.70;61.90;;;21.47;46.19;97784.41;5123922;27;20456;-73
2023/07/20 08:50:50;;;;;;;2.03;1.80;;;21.60;61.20;;;22.11;45.20;97779.75;5097946;28;20449;-73
2023/07/20 08:53:18;;;;;;;2.90;2.07;;;21.90;61.80;;;22.48;44.10;97761.59;5101884;27;20464;-74
2023/07/20 08:55:47;;;;;;;4.00;1.87;;;22.30;60.70;;;22.99;44.08;97775.63;5106596;27;20461;-75
2023/07/20 08:58:15;;;;;;;2.70;1.83;;;22.70;60.60;;;22.69;43.72;97780.56;5117765;27;20469;-75
2023/07/20 09:00:43;;;;;;;2.00;1.80;;;22.70;59.50;;;22.22;44.68;97781.25;5122910;27;20492;-75
2023/07/20 09:03:11;;;;;;;2.30;1.70;;;22.40;59.70;;;22.19;44.40;97784.56;5120208;27;22421;-76
2023/07/20 09:05:40;;;;;;;2.10;1.70;;;22.20;59.50;;;22.56;43.41;97774.69;5101656;27;20458;-74
2023/07/20 09:08:08;;;;;;;1.70;1.60;;;22.40;59.00;;;22.82;43.44;97773.44;5131903;27;20886;-79
2023/07/20 09:10:35;;;;;;;2.20;1.83;;;22.60;59.10;;;22.96;43.28;97766.03;5135080;27;20510;-78
2023/07/20 09:13:04;;;;;;;3.20;1.70;;;22.90;59.00;;;22.93;42.91;97789.47;5116058;28;20456;-82
2023/07/20 09:15:31;;;;;;;2.50;2.00;;;22.90;58.40;;;22.73;43.73;97776.06;5121145;27;21311;-73
2023/07/20 09:18:03;;;;;;;1.70;1.40;;;22.80;58.90;;;21.81;44.42;97770.81;5116959;27;20445;-74
2023/07/20 09:20:34;;;;;;;4.30;1.60;;;22.10;57.80;;;22.10;44.32;97780.88;5118552;27;20498;-74
2023/07/20 09:23:07;;;;;;;2.60;2.17;;;22.00;58.50;;;22.30;44.35;97788.81;5116729;27;20490;-73
2023/07/20 09:25:34;;;;;;;3.40;1.80;;;22.20;58.60;;;22.49;43.94;97783.34;5095618;27;20460;-74
2023/07/20 09:28:05;;;;;;;2.80;1.50;;;22.40;58.60;;;22.37;43.13;97780.19;5131706;27;21101;-73
2023/07/20 09:30:32;;;;;;;1.30;1.20;;;22.40;57.70;;;22.14;43.86;97777.25;5124601;27;21067;-75
2023/07/20 09:32:59;;;;;;;2.10;1.67;;;22.20;58.10;;;22.23;43.77;97777.38;5121034;27;20457;-75
2023/07/20 09:35:27;;;;;;;1.70;1.50;;;22.20;58.00;;;22.13;43.33;97717.00;5100926;27;20458;-74
2023/07/20 09:37:59;;;;;;;1.37;1.27;;;22.30;57.60;;;22.70;41.87;97777.47;5116093;27;21981;-75
2023/07/20 09:40:27;;;;;;;2.13;1.73;;;22.60;57.10;;;22.29;42.95;97775.34;5101071;27;20438;-75
2023/07/20 09:42:59;;;;;;;2.20;1.43;;;22.40;56.70;;;22.40;42.05;97773.28;5119761;27;20455;-76
2023/07/20 09:45:31;;;;;;;1.40;1.30;;;22.30;56.50;;;22.66;42.57;97772.88;5119480;27;20465;-74
2023/07/20 09:48:06;;;;;;;1.90;1.80;;;22.50;56.90;;;22.66;42.62;97772.88;5122304;27;20943;-73
2023/07/20 09:50:33;;;;;;;2.10;1.50;;;22.60;56.80;;;23.05;42.23;97763.38;5140470;27;20449;-74
2023/07/20 09:53:02;;;;;;;1.40;1.10;;;22.80;57.10;;;22.56;41.81;97758.19;5124011;27;21131;-74
2023/07/20 09:55:30;;;;;;;1.40;1.23;;;22.80;55.90;;;22.34;42.83;97770.59;5126731;27;20456;-74
2023/07/20 09:57:57;;;;;;;2.17;1.73;;;22.40;56.20;;;21.93;43.13;97772.00;5119364;27;20459;-76
2023/07/20 10:00:25;;;;;;;1.50;1.40;;;22.10;56.20;;;21.81;42.12;97782.63;5119768;27;20452;-75
2023/07/20 10:02:54;;;;;;;1.50;1.03;;;21.90;55.10;;;21.84;42.72;97757.31;5119318;27;20450;-74
2023/07/20 10:05:23;;;;;;;1.93;1.57;;;21.90;55.60;;;22.16;42.05;97765.91;5119282;27;20514;-74
2023/07/20 10:07:51;;;;;;;1.53;1.30;;;22.00;55.40;;;22.15;41.71;97767.88;5109191;27;20457;-77
2023/07/20 10:10:20;;;;;;;1.40;1.00;;;22.20;55.10;;;22.29;40.40;97767.09;5123762;27;20449;-75
2023/07/20 10:12:51;;;;;;;2.13;1.23;;;22.20;54.00;;;22.60;37.17;97761.16;5125963;27;20470;-73
2023/07/20 10:15:24;;;;;;;1.77;0.90;;;22.50;51.60;;;22.35;38.22;97761.22;5105078;27;20450;-75
2023/07/20 10:18:04;;;;;;;1.30;1.10;;;22.40;52.00;;;22.33;38.45;97744.19;5124428;27;20526;-74
2023/07/20 10:20:34;;;;;;;1.37;1.27;;;22.40;52.10;;;22.70;38.84;97751.91;5105690;27;20480;-75
2023/07/20 10:23:02;;;;;;;2.30;1.40;;;22.60;52.60;;;22.50;39.34;97756.59;5120968;27;20514;-75
2023/07/20 10:25:30;;;;;;;1.20;1.10;;;22.60;52.70;;;22.34;39.92;97756.81;5100503;27;21035;-73